Time;durP1;ratioP1;P1;durP2;ratioP2;P2;SDS_P1;SDS_P2;PMS_P1;PMS_P2;Temp;Humidity;BMP_temperature;BMP_pressure;BME280_temperature;BME280_humidity;BME280_pressure;Samples;Min_cycle;Max_cycle;Signal;HPM_P1;HPM_P2
2023/04/04 00:00:26;;;;;;;5.40;1.80;;;;;;;-1.19;67.07;102343.45;105878;1254;61579;-71
2023/04/04 00:02:52;;;;;;;6.60;2.20;;;;;;;-1.21;67.26;102343.90;105820;1258;73478;-70
2023/04/04 00:05:19;;;;;;;6.50;2.70;;;;;;;-1.24;67.53;102343.82;105933;1256;71211;-70
2023/04/04 00:07:46;;;;;;;5.40;1.90;;;;;;;-1.26;67.92;102344.92;105701;1258;71874;-70
2023/04/04 00:10:13;;;;;;;4.90;1.80;;;;;;;-1.28;68.07;102346.02;105663;1257;61236;-71
2023/04/04 00:12:41;;;;;;;5.50;2.00;;;;;;;-1.29;68.28;102344.70;105826;1257;61178;-73
2023/04/04 00:15:08;;;;;;;5.40;1.90;;;;;;;-1.30;68.43;102346.63;105707;1253;73283;-71
2023/04/04 00:17:35;;;;;;;6.90;2.00;;;;;;;-1.32;68.56;102344.80;105887;1253;71348;-71
2023/04/04 00:20:03;;;;;;;4.00;2.00;;;;;;;-1.34;68.77;102344.70;105796;1254;71804;-71
2023/04/04 00:22:31;;;;;;;4.20;1.70;;;;;;;-1.35;68.99;102344.06;105834;1254;61366;-71
2023/04/04 00:24:57;;;;;;;5.20;2.10;;;;;;;-1.36;69.15;102340.98;105480;1261;62013;-71
2023/04/04 00:27:25;;;;;;;5.30;2.40;;;;;;;-1.38;69.41;102342.61;105624;1258;74661;-71
2023/04/04 00:29:52;;;;;;;6.40;2.50;;;;;;;-1.39;69.51;102343.34;105684;1256;71810;-70
2023/04/04 00:32:19;;;;;;;9.20;3.70;;;;;;;-1.41;69.72;102341.33;105561;1260;71205;-71
2023/04/04 00:34:51;;;;;;;6.90;3.00;;;;;;;-1.42;69.74;102341.55;105570;1255;61276;-74
2023/04/04 00:37:17;;;;;;;7.60;3.10;;;;;;;-1.45;69.85;102341.13;105628;1254;61280;-71
2023/04/04 00:39:44;;;;;;;6.00;2.70;;;;;;;-1.48;70.01;102343.65;105580;1256;61188;-71
2023/04/04 00:42:11;;;;;;;5.60;2.70;;;;;;;-1.50;70.49;102339.91;105649;1256;61282;-73
2023/04/04 00:44:37;;;;;;;5.70;2.80;;;;;;;-1.52;70.77;102341.90;105520;1255;73749;-71
2023/04/04 00:47:16;;;;;;;6.50;2.70;;;;;;;-1.53;70.94;102338.66;105477;1255;61693;-74
2023/04/04 00:49:45;;;;;;;5.50;2.40;;;;;;;-1.56;71.13;102341.52;105421;1257;61172;-73
2023/04/04 00:52:12;;;;;;;7.80;3.00;;;;;;;-1.58;71.20;102343.50;105606;1256;73449;-71
2023/04/04 00:54:39;;;;;;;6.00;2.20;;;;;;;-1.60;71.28;102340.82;105550;1255;71033;-71
2023/04/04 00:57:07;;;;;;;5.50;2.30;;;;;;;-1.62;71.52;102337.09;105584;1256;71602;-70
2023/04/04 00:59:35;;;;;;;4.80;2.30;;;;;;;-1.65;71.78;102337.86;105445;1256;61350;-73
2023/04/04 01:02:02;;;;;;;6.10;2.10;;;;;;;-1.68;72.07;102334.33;105761;1254;61362;-69
2023/04/04 01:04:29;;;;;;;6.20;2.00;;;;;;;-1.70;72.25;102333.89;105717;1254;73468;-72
2023/04/04 01:06:56;;;;;;;7.40;1.90;;;;;;;-1.73;72.60;102329.81;105620;1255;70664;-69
2023/04/04 01:09:23;;;;;;;9.80;2.20;;;;;;;-1.75;72.62;102333.02;105555;1255;72442;-70
2023/04/04 01:11:51;;;;;;;5.20;2.10;;;;;;;-1.77;72.76;102334.66;105434;1259;61776;-72
2023/04/04 01:14:17;;;;;;;6.70;2.30;;;;;;;-1.78;73.04;102335.92;105578;1255;61906;-70
2023/04/04 01:16:45;;;;;;;5.70;2.10;;;;;;;-1.80;73.18;102335.63;105532;1260;62478;-72
2023/04/04 01:19:27;;;;;;;6.40;2.20;;;;;;;-1.82;73.27;102332.40;105584;1255;71323;-72
2023/04/04 01:21:56;;;;;;;6.10;2.00;;;;;;;-1.84;73.51;102338.02;105827;1258;70489;-73
2023/04/04 01:24:25;;;;;;;5.50;2.20;;;;;;;-1.86;73.68;102334.10;105762;1254;61769;-71
2023/04/04 01:26:51;;;;;;;6.00;2.20;;;;;;;-1.89;73.78;102332.46;105773;1258;61364;-71
2023/04/04 01:29:19;;;;;;;6.40;2.40;;;;;;;-1.91;73.99;102333.26;105473;1258;73685;-71
2023/04/04 01:31:55;;;;;;;5.80;2.30;;;;;;;-1.93;74.27;102337.82;105641;1261;71150;-71
2023/04/04 01:34:45;;;;;;;6.10;2.50;;;;;;;-1.94;74.32;102333.72;105453;1256;71194;-70
2023/04/04 01:37:25;;;;;;;4.10;2.20;;;;;;;-1.95;74.48;102332.88;105601;1254;61226;-70
2023/04/04 01:40:07;;;;;;;6.80;2.30;;;;;;;-1.97;74.61;102332.08;105650;1254;62206;-72
2023/04/04 01:42:35;;;;;;;6.90;2.40;;;;;;;-1.99;74.63;102328.16;105473;1255;74538;-70
2023/04/04 01:45:04;;;;;;;7.20;2.80;;;;;;;-2.00;74.81;102323.68;105544;1256;71130;-71
2023/04/04 01:47:40;;;;;;;4.70;2.40;;;;;;;-2.01;74.88;102324.95;105582;1254;70415;-70
2023/04/04 01:50:09;;;;;;;4.60;2.00;;;;;;;-2.03;75.09;102321.52;105556;1255;62393;-73
2023/04/04 01:52:36;;;;;;;7.90;2.80;;;;;;;-2.04;75.16;102317.39;105594;1256;61261;-71
2023/04/04 01:55:03;;;;;;;6.50;2.90;;;;;;;-2.05;75.36;102315.52;105505;1256;73303;-73
2023/04/04 01:57:30;;;;;;;7.50;2.40;;;;;;;-2.07;75.43;102313.86;105579;1256;70164;-71
2023/04/04 01:59:56;;;;;;;7.70;2.50;;;;;;;-2.10;75.52;102311.54;105459;1258;72773;-75
2023/04/04 02:02:25;;;;;;;5.80;2.60;;;;;;;-2.12;75.82;102315.93;105461;1256;62695;-72
2023/04/04 02:04:52;;;;;;;6.80;2.60;;;;;;;-2.13;75.78;102314.92;105605;1257;61224;-71
2023/04/04 02:07:19;;;;;;;5.80;2.70;;;;;;;-2.14;76.08;102314.28;105664;1258;73881;-71
2023/04/04 02:09:46;;;;;;;5.10;2.90;;;;;;;-2.15;76.31;102308.23;105573;1256;70257;-73
2023/04/04 02:12:12;;;;;;;7.10;2.90;;;;;;;-2.15;76.46;102309.29;105577;1258;72424;-72
2023/04/04 02:14:40;;;;;;;5.80;2.30;;;;;;;-2.16;76.35;102308.45;105573;1256;61229;-70
2023/04/04 02:17:07;;;;;;;4.60;2.10;;;;;;;-2.17;76.67;102308.13;105697;1255;61328;-71
2023/04/04 02:19:34;;;;;;;5.30;2.70;;;;;;;-2.17;76.71;102307.60;105576;1256;75355;-70
2023/04/04 02:22:01;;;;;;;7.10;2.60;;;;;;;-2.17;76.82;102305.02;105453;1255;71241;-71
2023/04/04 02:24:28;;;;;;;6.60;2.60;;;;;;;-2.18;76.79;102302.96;105498;1256;72662;-71
2023/04/04 02:26:55;;;;;;;4.30;2.60;;;;;;;-2.18;76.94;102300.23;105616;1255;61275;-72
2023/04/04 02:29:22;;;;;;;6.60;2.80;;;;;;;-2.18;77.05;102301.77;105541;1258;61332;-71
2023/04/04 02:31:51;;;;;;;5.60;2.50;;;;;;;-2.19;77.01;102299.20;105491;1256;74721;-72
2023/04/04 02:34:18;;;;;;;5.30;2.30;;;;;;;-2.19;77.04;102296.77;105493;1255;70095;-71
2023/04/04 02:36:45;;;;;;;6.80;2.40;;;;;;;-2.18;77.22;102294.30;105526;1258;71224;-69
2023/04/04 02:39:11;;;;;;;7.20;2.60;;;;;;;-2.17;77.31;102296.36;105562;1255;61259;-73
2023/04/04 02:41:38;;;;;;;5.20;2.40;;;;;;;-2.17;77.32;102294.26;105520;1254;61637;-72
2023/04/04 02:44:05;;;;;;;6.80;2.40;;;;;;;-2.15;77.52;102284.50;105485;1256;74207;-72
2023/04/04 02:46:32;;;;;;;6.10;2.70;;;;;;;-2.15;77.65;102278.09;105585;1256;70100;-70
2023/04/04 02:49:00;;;;;;;6.10;2.90;;;;;;;-2.14;77.66;102279.79;105550;1254;70536;-71
2023/04/04 02:51:32;;;;;;;6.60;2.50;;;;;;;-2.14;77.80;102276.66;105471;1261;61363;-71
2023/04/04 02:54:01;;;;;;;5.50;2.60;;;;;;;-2.14;77.83;102271.30;105456;1258;61161;-72
2023/04/04 02:56:27;;;;;;;8.00;3.10;;;;;;;-2.15;77.92;102271.66;105560;1255;73257;-73
2023/04/04 02:58:54;;;;;;;7.50;2.60;;;;;;;-2.14;77.89;102270.61;105538;1258;70921;-72
2023/04/04 03:01:21;;;;;;;6.90;2.70;;;;;;;-2.14;78.10;102265.56;105503;1255;72682;-71
2023/04/04 03:03:48;;;;;;;6.30;2.50;;;;;;;-2.14;78.08;102260.02;105637;1255;63004;-72
2023/04/04 03:06:15;;;;;;;6.50;2.20;;;;;;;-2.13;78.19;102258.92;105496;1256;61771;-71
2023/04/04 03:08:42;;;;;;;5.20;2.50;;;;;;;-2.12;78.30;102258.73;105667;1254;74743;-70
2023/04/04 03:11:08;;;;;;;5.70;2.30;;;;;;;-2.11;78.24;102258.02;105508;1260;70406;-71
2023/04/04 03:13:35;;;;;;;5.30;2.60;;;;;;;-2.11;78.26;102259.56;105634;1258;61350;-72
2023/04/04 03:16:05;;;;;;;4.60;2.20;;;;;;;-2.12;78.42;102258.20;105565;1256;61357;-70
2023/04/04 03:18:33;;;;;;;6.00;2.60;;;;;;;-2.12;78.34;102255.64;105662;1261;61267;-69
2023/04/04 03:21:00;;;;;;;7.50;2.40;;;;;;;-2.12;78.36;102254.59;105580;1258;74820;-70
2023/04/04 03:23:26;;;;;;;5.90;2.50;;;;;;;-2.12;78.37;102252.17;105636;1258;70891;-72
2023/04/04 03:25:54;;;;;;;7.10;2.90;;;;;;;-2.11;78.42;102250.05;105545;1257;72933;-70
2023/04/04 03:28:21;;;;;;;8.00;2.90;;;;;;;-2.12;78.38;102247.66;105537;1256;61446;-71
2023/04/04 03:30:48;;;;;;;8.90;3.30;;;;;;;-2.13;78.26;102244.21;105613;1258;61350;-71
2023/04/04 03:33:15;;;;;;;6.80;2.60;;;;;;;-2.14;78.40;102240.62;105554;1256;74570;-71
2023/04/04 03:35:42;;;;;;;6.00;2.70;;;;;;;-2.15;78.40;102239.77;105552;1255;71268;-72
2023/04/04 03:38:09;;;;;;;7.00;2.80;;;;;;;-2.16;78.45;102236.70;105405;1261;72018;-71
2023/04/04 03:40:36;;;;;;;7.60;2.70;;;;;;;-2.17;78.42;102236.05;105513;1256;61728;-75
2023/04/04 03:43:06;;;;;;;6.50;2.60;;;;;;;-2.18;78.61;102237.12;105616;1256;61445;-73
2023/04/04 03:45:34;;;;;;;7.80;3.10;;;;;;;-2.18;78.77;102237.15;105557;1259;74339;-70
2023/04/04 03:48:01;;;;;;;6.50;3.00;;;;;;;-2.19;78.67;102239.08;105606;1256;71290;-71
2023/04/04 03:50:28;;;;;;;6.80;2.80;;;;;;;-2.21;78.92;102235.67;105616;1256;72398;-73
2023/04/04 03:52:57;;;;;;;6.70;3.40;;;;;;;-2.22;79.03;102233.27;105630;1256;61300;-75
2023/04/04 03:55:25;;;;;;;5.80;2.90;;;;;;;-2.23;78.95;102233.15;105720;1258;61219;-71
2023/04/04 03:57:51;;;;;;;7.70;3.60;;;;;;;-2.26;79.04;102232.00;105514;1255;73460;-71
2023/04/04 04:00:18;;;;;;;7.30;3.40;;;;;;;-2.27;79.24;102230.34;105529;1260;69945;-72
2023/04/04 04:02:45;;;;;;;8.40;3.30;;;;;;;-2.29;79.16;102229.35;105484;1256;71541;-74
2023/04/04 04:05:12;;;;;;;7.20;3.00;;;;;;;-2.28;79.34;102226.40;105602;1258;61716;-70
2023/04/04 04:07:42;;;;;;;6.00;2.80;;;;;;;-2.28;79.37;102221.88;105701;1256;61761;-71
2023/04/04 04:10:09;;;;;;;7.40;3.20;;;;;;;-2.28;79.48;102222.56;105527;1256;74692;-70
2023/04/04 04:12:36;;;;;;;7.20;3.00;;;;;;;-2.29;79.42;102221.92;105534;1257;69749;-71
2023/04/04 04:15:02;;;;;;;6.70;2.60;;;;;;;-2.31;79.46;102221.98;105701;1259;70776;-70
2023/04/04 04:17:29;;;;;;;6.50;2.90;;;;;;;-2.32;79.70;102220.61;105576;1256;61696;-70
2023/04/04 04:19:56;;;;;;;6.80;2.90;;;;;;;-2.30;79.72;102224.37;105617;1254;61404;-72
2023/04/04 04:22:23;;;;;;;6.30;2.90;;;;;;;-2.30;79.93;102226.78;105705;1255;76382;-71
2023/04/04 04:24:51;;;;;;;8.10;3.00;;;;;;;-2.30;79.69;102228.71;105603;1258;69544;-73
2023/04/04 04:27:18;;;;;;;6.90;2.40;;;;;;;-2.30;79.89;102231.98;105564;1256;72683;-73
2023/04/04 04:29:45;;;;;;;7.80;2.80;;;;;;;-2.30;79.96;102227.98;105514;1258;61816;-71
2023/04/04 04:32:15;;;;;;;5.70;2.80;;;;;;;-2.29;79.85;102227.81;105612;1260;62449;-70
2023/04/04 04:34:42;;;;;;;7.40;2.50;;;;;;;-2.28;80.08;102228.29;105550;1257;73477;-70
2023/04/04 04:37:09;;;;;;;6.80;2.70;;;;;;;-2.28;80.22;102229.83;105674;1261;61370;-70
2023/04/04 04:39:36;;;;;;;5.80;2.40;;;;;;;-2.27;79.97;102228.07;105587;1261;72499;-72
2023/04/04 04:42:02;;;;;;;5.90;2.50;;;;;;;-2.27;79.87;102227.58;105598;1260;61175;-70
2023/04/04 04:44:29;;;;;;;7.30;2.70;;;;;;;-2.29;79.81;102226.41;105684;1258;61324;-71
2023/04/04 04:46:56;;;;;;;5.50;2.50;;;;;;;-2.31;79.70;102224.07;105766;1258;74406;-74
2023/04/04 04:49:22;;;;;;;6.70;2.40;;;;;;;-2.34;79.83;102226.94;105748;1254;70421;-71
2023/04/04 04:51:49;;;;;;;7.50;2.70;;;;;;;-2.35;80.05;102229.42;105665;1261;72344;-71
2023/04/04 04:54:16;;;;;;;5.30;2.70;;;;;;;-2.37;80.12;102232.77;105678;1256;62822;-71
2023/04/04 04:56:43;;;;;;;5.90;2.30;;;;;;;-2.38;80.15;102234.01;105602;1255;61289;-72
2023/04/04 04:59:11;;;;;;;7.40;2.50;;;;;;;-2.39;80.21;102230.58;105557;1256;72733;-70
2023/04/04 05:01:38;;;;;;;6.70;2.80;;;;;;;-2.39;80.32;102231.80;105656;1256;71574;-74
2023/04/04 05:04:05;;;;;;;5.60;2.80;;;;;;;-2.38;80.38;102232.80;105540;1256;72006;-71
2023/04/04 05:06:31;;;;;;;5.20;2.50;;;;;;;-2.38;80.38;102234.19;105764;1255;61374;-71
2023/04/04 05:08:58;;;;;;;7.50;2.70;;;;;;;-2.38;80.59;102237.12;105691;1257;61252;-72
2023/04/04 05:11:25;;;;;;;7.50;2.70;;;;;;;-2.38;80.63;102238.34;105611;1256;75696;-72
2023/04/04 05:13:51;;;;;;;10.90;2.90;;;;;;;-2.36;80.88;102236.73;105653;1254;70982;-70
2023/04/04 05:16:19;;;;;;;6.40;2.70;;;;;;;-2.34;80.89;102238.73;105476;1260;72753;-73
2023/04/04 05:18:46;;;;;;;10.10;3.00;;;;;;;-2.31;81.24;102237.92;105587;1258;62460;-71
2023/04/04 05:21:12;;;;;;;8.50;3.10;;;;;;;-2.26;81.19;102244.51;105752;1261;61673;-72
2023/04/04 05:23:39;;;;;;;10.60;2.90;;;;;;;-2.22;81.18;102242.98;105649;1255;74754;-71
2023/04/04 05:26:06;;;;;;;9.10;2.90;;;;;;;-2.16;81.15;102250.22;105482;1260;71210;-72
2023/04/04 05:28:33;;;;;;;11.10;3.00;;;;;;;-2.10;81.17;102254.52;105759;1256;72844;-72
2023/04/04 05:31:00;;;;;;;6.00;2.70;;;;;;;-2.04;81.07;102257.59;105614;1257;62431;-70
2023/04/04 05:33:30;;;;;;;8.40;2.60;;;;;;;-1.97;81.10;102261.85;105651;1257;61453;-70
2023/04/04 05:35:59;;;;;;;7.80;3.00;;;;;;;-1.90;81.03;102263.13;105321;1260;266886;-72
2023/04/04 05:38:26;;;;;;;6.80;3.00;;;;;;;-1.84;80.72;102267.08;105755;1256;69750;-71
2023/04/04 05:40:53;;;;;;;8.70;4.00;;;;;;;-1.76;80.76;102268.53;105567;1259;61647;-70
2023/04/04 05:43:20;;;;;;;10.30;3.50;;;;;;;-1.70;80.78;102270.21;105658;1255;61252;-73
2023/04/04 05:45:46;;;;;;;8.70;4.60;;;;;;;-1.61;80.62;102267.49;105568;1256;61209;-71
2023/04/04 05:48:14;;;;;;;11.00;4.50;;;;;;;-1.55;80.44;102270.17;105593;1258;61407;-71
2023/04/04 05:50:44;;;;;;;9.20;4.30;;;;;;;-1.45;80.39;102270.86;105632;1258;70303;-70
2023/04/04 05:53:11;;;;;;;11.20;4.60;;;;;;;-1.36;80.30;102271.55;105721;1254;72566;-69
2023/04/04 05:55:37;;;;;;;13.70;5.20;;;;;;;-1.27;80.30;102274.50;105549;1256;62488;-70
2023/04/04 05:58:04;;;;;;;11.30;4.10;;;;;;;-1.18;79.99;102275.20;105652;1256;62168;-72
2023/04/04 06:00:34;;;;;;;12.30;4.10;;;;;;;-1.10;79.65;102277.50;105714;1260;74685;-71
2023/04/04 06:03:00;;;;;;;13.60;3.80;;;;;;;-1.02;79.56;102277.52;105537;1256;70920;-70
2023/04/04 06:05:27;;;;;;;10.60;3.90;;;;;;;-0.94;79.48;102278.44;105627;1256;72562;-72
2023/04/04 06:07:54;;;;;;;7.90;3.20;;;;;;;-0.85;79.39;102280.99;105552;1260;61888;-72
2023/04/04 06:10:20;;;;;;;10.50;3.70;;;;;;;-0.74;79.36;102276.23;105780;1258;61240;-70
2023/04/04 06:12:47;;;;;;;6.70;2.90;;;;;;;-0.66;78.81;102278.34;105755;1255;73463;-72
2023/04/04 06:15:14;;;;;;;9.30;3.10;;;;;;;-0.55;78.92;102274.58;105480;1260;69579;-70
2023/04/04 06:17:41;;;;;;;8.20;3.00;;;;;;;-0.43;78.78;102272.65;105525;1259;72463;-70
2023/04/04 06:20:10;;;;;;;6.30;2.90;;;;;;;-0.29;78.67;102271.73;105558;1255;61336;-70
2023/04/04 06:22:37;;;;;;;9.30;2.90;;;;;;;-0.13;78.53;102273.11;105565;1259;61494;-70
2023/04/04 06:25:04;;;;;;;10.20;2.50;;;;;;;0.02;78.01;102276.14;105604;1254;61347;-72
2023/04/04 06:27:30;;;;;;;9.50;3.00;;;;;;;0.16;77.80;102275.68;105589;1256;69683;-70
2023/04/04 06:29:57;;;;;;;7.70;2.70;;;;;;;0.31;77.40;102277.61;105760;1258;72720;-70
2023/04/04 06:32:26;;;;;;;12.00;3.10;;;;;;;0.46;77.20;102282.15;105747;1258;61232;-71
2023/04/04 06:34:53;;;;;;;7.00;2.80;;;;;;;0.65;77.13;102278.51;105675;1255;61188;-71
2023/04/04 06:37:20;;;;;;;8.10;3.00;;;;;;;0.83;76.75;102285.69;105555;1260;74771;-71
2023/04/04 06:39:49;;;;;;;7.40;2.80;;;;;;;0.95;76.02;102287.37;105647;1260;71683;-70
2023/04/04 06:42:17;;;;;;;7.20;2.70;;;;;;;1.03;75.60;102289.23;105623;1256;71503;-70
2023/04/04 06:44:44;;;;;;;7.60;2.70;;;;;;;1.12;75.27;102287.92;105702;1257;61681;-70
2023/04/04 06:47:11;;;;;;;4.70;2.20;;;;;;;1.22;74.81;102284.83;105619;1258;61225;-71
2023/04/04 06:49:38;;;;;;;4.70;2.10;;;;;;;1.33;74.53;102286.77;105615;1259;75874;-70
2023/04/04 06:52:04;;;;;;;6.20;2.30;;;;;;;1.46;74.62;102285.06;105615;1260;61247;-72
2023/04/04 06:54:31;;;;;;;5.40;2.30;;;;;;;1.61;74.44;102282.73;105633;1258;62174;-71
2023/04/04 06:56:57;;;;;;;5.90;2.50;;;;;;;1.77;73.90;102283.34;105644;1258;61229;-70
2023/04/04 06:59:24;;;;;;;5.40;2.40;;;;;;;1.84;73.24;102284.02;105638;1259;61739;-70
2023/04/04 07:01:51;;;;;;;6.30;2.30;;;;;;;1.92;73.17;102279.92;105607;1258;74726;-71
2023/04/04 07:04:19;;;;;;;5.30;2.30;;;;;;;2.01;72.90;102280.66;105738;1256;69933;-71
2023/04/04 07:06:45;;;;;;;6.10;1.80;;;;;;;2.10;72.07;102283.17;105568;1254;72429;-74
2023/04/04 07:09:12;;;;;;;6.80;2.30;;;;;;;2.11;71.61;102286.11;105707;1254;61304;-70
2023/04/04 07:11:54;;;;;;;6.90;2.40;;;;;;;2.15;71.55;102288.67;105742;1256;61200;-70
2023/04/04 07:14:23;;;;;;;7.90;2.70;;;;;;;2.17;71.04;102290.31;105739;1256;73480;-69
2023/04/04 07:16:51;;;;;;;5.00;2.20;;;;;;;2.21;70.96;102290.98;105625;1259;71269;-71
2023/04/04 07:19:27;;;;;;;6.50;2.60;;;;;;;2.32;71.10;102293.85;105760;1259;71154;-71
2023/04/04 07:21:55;;;;;;;7.20;2.10;;;;;;;2.42;70.43;102294.92;105541;1259;61708;-71
2023/04/04 07:24:22;;;;;;;6.60;2.50;;;;;;;2.45;69.86;102299.84;105662;1254;61357;-70
2023/04/04 07:26:48;;;;;;;4.90;2.20;;;;;;;2.53;70.05;102296.41;105685;1258;74521;-69
2023/04/04 07:29:15;;;;;;;4.10;1.90;;;;;;;2.60;69.44;102293.79;105769;1258;61350;-72
2023/04/04 07:31:41;;;;;;;5.40;2.30;;;;;;;2.65;69.11;102298.39;105707;1256;71226;-70
2023/04/04 07:34:08;;;;;;;4.30;2.00;;;;;;;2.78;69.57;102303.06;105782;1258;61346;-73
2023/04/04 07:36:35;;;;;;;4.60;1.90;;;;;;;2.87;69.08;102303.10;105773;1256;61817;-70
2023/04/04 07:39:02;;;;;;;5.90;2.10;;;;;;;2.99;69.06;102303.88;105684;1259;73307;-70
2023/04/04 07:41:29;;;;;;;5.10;2.40;;;;;;;3.08;68.41;102304.73;105699;1255;70941;-69
2023/04/04 07:43:56;;;;;;;6.60;2.50;;;;;;;3.16;68.19;102302.91;105616;1257;72681;-72
2023/04/04 07:46:22;;;;;;;5.80;2.90;;;;;;;3.26;67.98;102302.84;105770;1254;61284;-71
2023/04/04 07:48:49;;;;;;;6.10;2.90;;;;;;;3.36;67.83;102299.29;105602;1255;61160;-70
2023/04/04 07:51:16;;;;;;;8.60;3.30;;;;;;;3.49;67.74;102296.61;105607;1259;74111;-69
2023/04/04 07:53:43;;;;;;;7.70;3.20;;;;;;;3.66;68.20;102291.28;105512;1260;71256;-70
2023/04/04 07:56:09;;;;;;;7.60;3.00;;;;;;;3.78;66.81;102291.98;105653;1259;72397;-70
2023/04/04 07:58:36;;;;;;;6.10;3.10;;;;;;;3.82;66.01;102292.29;105690;1258;61371;-71
2023/04/04 08:01:03;;;;;;;8.30;3.80;;;;;;;3.86;66.03;102290.45;105601;1258;61731;-69
2023/04/04 08:03:29;;;;;;;9.10;3.90;;;;;;;3.99;66.40;102286.84;105553;1255;61272;-71
2023/04/04 08:05:56;;;;;;;8.10;3.60;;;;;;;4.15;65.72;102285.69;105572;1260;71236;-74
2023/04/04 08:08:22;;;;;;;7.90;3.50;;;;;;;4.28;65.00;102286.48;105452;1261;71235;-72
2023/04/04 08:10:49;;;;;;;7.00;3.20;;;;;;;4.37;64.19;102286.13;105437;1257;61596;-74
2023/04/04 08:13:16;;;;;;;5.40;2.90;;;;;;;4.43;63.45;102279.27;105485;1256;61355;-72
2023/04/04 08:15:42;;;;;;;6.20;2.70;;;;;;;4.52;63.17;102280.29;105612;1258;74414;-70
2023/04/04 08:18:09;;;;;;;7.30;2.90;;;;;;;4.61;62.16;102280.04;105655;1258;72452;-70
2023/04/04 08:20:36;;;;;;;6.20;2.80;;;;;;;4.64;61.01;102278.61;105502;1258;71693;-69
2023/04/04 08:23:03;;;;;;;5.40;2.50;;;;;;;4.62;60.30;102279.10;105412;1261;61340;-72
2023/04/04 08:25:30;;;;;;;6.40;2.70;;;;;;;4.64;60.25;102275.98;105497;1258;61280;-69
2023/04/04 08:27:56;;;;;;;6.30;2.50;;;;;;;4.73;60.40;102281.21;105587;1263;62485;-71
2023/04/04 08:30:23;;;;;;;6.50;2.80;;;;;;;4.81;59.98;102279.81;105562;1259;69942;-70
2023/04/04 08:32:52;;;;;;;4.20;1.80;;;;;;;4.86;57.83;102278.59;105529;1263;61866;-69
2023/04/04 08:35:18;;;;;;;6.00;1.50;;;;;;;4.96;56.78;102280.08;105474;1260;61881;-70
2023/04/04 08:37:45;;;;;;;5.00;1.50;;;;;;;5.10;55.20;102277.77;105532;1259;61277;-74
2023/04/04 08:40:15;;;;;;;4.60;1.30;;;;;;;5.16;53.45;102275.79;105613;1265;61205;-71
2023/04/04 08:42:44;;;;;;;3.80;1.50;;;;;;;4.94;51.72;102267.42;105703;1259;70097;-71
2023/04/04 08:45:15;;;;;;;5.60;1.60;;;;;;;4.68;52.82;102264.55;105678;1260;70282;-70
2023/04/04 08:47:43;;;;;;;4.00;1.60;;;;;;;4.69;54.03;102265.53;105508;1254;62282;-71
2023/04/04 08:50:11;;;;;;;3.00;1.30;;;;;;;4.79;54.45;102265.73;105614;1260;61357;-70
2023/04/04 08:52:39;;;;;;;3.70;1.30;;;;;;;4.99;54.04;102265.16;105484;1261;74611;-70
2023/04/04 08:55:09;;;;;;;3.10;1.10;;;;;;;5.16;52.28;102264.95;105606;1260;69742;-71
2023/04/04 08:57:37;;;;;;;3.90;1.20;;;;;;;5.25;50.71;102261.02;105541;1260;71518;-71
2023/04/04 09:00:07;;;;;;;4.10;1.40;;;;;;;5.28;51.82;102260.95;105539;1261;62214;-73
2023/04/04 09:02:56;;;;;;;2.80;1.10;;;;;;;5.33;49.80;102261.53;105714;1258;61222;-71
2023/04/04 09:05:24;;;;;;;3.60;1.10;;;;;;;5.49;50.31;102264.51;105568;1258;73609;-70
2023/04/04 09:07:52;;;;;;;2.60;1.20;;;;;;;5.62;48.81;102262.04;105671;1259;70196;-70
2023/04/04 09:10:19;;;;;;;3.40;1.20;;;;;;;5.77;49.02;102256.61;105628;1260;71205;-70
2023/04/04 09:12:47;;;;;;;4.30;1.20;;;;;;;5.96;48.23;102250.59;105588;1258;62449;-72
2023/04/04 09:15:14;;;;;;;3.00;1.20;;;;;;;6.06;46.78;102248.03;105795;1267;61253;-69
2023/04/04 09:17:41;;;;;;;2.90;0.90;;;;;;;6.21;47.34;102249.95;105717;1258;74610;-70
2023/04/04 09:20:33;;;;;;;3.80;1.10;;;;;;;6.33;46.52;102244.85;105692;1259;71447;-71
2023/04/04 09:23:00;;;;;;;2.50;0.90;;;;;;;6.44;45.52;102252.00;105526;1260;73715;-72
2023/04/04 09:25:27;;;;;;;2.50;0.80;;;;;;;6.50;44.18;102251.39;105569;1254;62882;-70
2023/04/04 09:27:54;;;;;;;1.90;0.70;;;;;;;6.44;43.15;102247.23;105595;1260;61402;-71
2023/04/04 09:30:21;;;;;;;3.20;0.90;;;;;;;6.52;44.25;102249.35;105605;1260;73957;-70
2023/04/04 09:32:48;;;;;;;4.50;1.20;;;;;;;6.56;42.34;102249.39;105568;1257;69974;-72
2023/04/04 09:35:15;;;;;;;2.30;0.90;;;;;;;6.41;40.97;102246.92;105557;1258;72838;-73
2023/04/04 09:37:43;;;;;;;2.30;1.10;;;;;;;6.40;40.19;102248.43;105556;1254;61310;-70
2023/04/04 09:40:10;;;;;;;2.20;0.70;;;;;;;6.45;40.31;102246.88;105666;1254;61314;-70
2023/04/04 09:42:37;;;;;;;3.30;0.80;;;;;;;6.37;41.67;102246.85;105531;1260;73506;-74
2023/04/04 09:45:05;;;;;;;3.50;1.30;;;;;;;6.34;42.70;102250.77;105485;1260;68733;-70
2023/04/04 09:47:32;;;;;;;2.70;1.00;;;;;;;6.28;42.79;102251.39;105464;1257;72810;-70
2023/04/04 09:50:00;;;;;;;2.90;1.00;;;;;;;6.30;42.13;102247.02;105578;1254;61895;-72
2023/04/04 09:52:32;;;;;;;3.30;1.00;;;;;;;6.42;42.29;102244.93;105673;1256;61356;-69
2023/04/04 09:55:00;;;;;;;2.90;1.00;;;;;;;6.61;42.11;102247.66;105567;1254;74432;-71
2023/04/04 09:57:29;;;;;;;2.60;1.00;;;;;;;6.80;42.44;102251.34;105586;1254;68959;-68
2023/04/04 10:00:01;;;;;;;3.10;1.00;;;;;;;6.96;42.00;102252.80;105565;1261;71230;-70
2023/04/04 10:02:29;;;;;;;1.90;0.70;;;;;;;7.05;41.27;102254.61;105661;1258;61332;-69
2023/04/04 10:04:56;;;;;;;3.30;1.00;;;;;;;6.97;40.10;102246.21;105519;1259;61754;-73
2023/04/04 10:07:32;;;;;;;2.50;1.00;;;;;;;6.92;40.31;102252.42;105720;1254;73499;-69
2023/04/04 10:10:07;;;;;;;3.20;1.10;;;;;;;6.94;40.46;102253.34;105592;1260;71171;-69
2023/04/04 10:12:36;;;;;;;2.90;1.00;;;;;;;7.05;41.25;102255.70;105705;1254;71625;-70
2023/04/04 10:15:03;;;;;;;2.80;1.10;;;;;;;7.17;40.76;102250.22;105641;1254;61284;-71
2023/04/04 10:17:35;;;;;;;3.10;1.40;;;;;;;7.29;40.44;102250.91;105343;1260;61248;-74
2023/04/04 10:20:10;;;;;;;3.50;1.30;;;;;;;7.47;41.18;102252.38;105607;1258;73526;-69
2023/04/04 10:22:38;;;;;;;3.20;1.10;;;;;;;7.61;40.72;102247.78;105472;1257;71312;-71
2023/04/04 10:25:06;;;;;;;2.80;1.10;;;;;;;7.72;39.98;102249.02;105656;1258;72681;-72
2023/04/04 10:27:33;;;;;;;4.50;1.30;;;;;;;7.68;39.11;102244.95;105514;1260;61279;-73
2023/04/04 10:30:00;;;;;;;3.00;1.00;;;;;;;7.66;41.00;102243.33;105496;1261;61132;-73
2023/04/04 10:32:37;;;;;;;2.70;1.00;;;;;;;7.73;40.70;102246.17;105678;1256;72572;-71
2023/04/04 10:35:09;;;;;;;3.80;1.40;;;;;;;7.59;38.94;102239.32;105662;1258;71988;-72
2023/04/04 10:37:56;;;;;;;6.60;1.80;;;;;;;7.42;39.55;102237.13;105497;1258;71512;-73
2023/04/04 10:40:27;;;;;;;2.30;0.90;;;;;;;7.48;40.58;102234.36;105785;1257;62894;-72
2023/04/04 10:42:56;;;;;;;2.80;0.90;;;;;;;7.60;41.26;102232.56;105720;1254;61237;-72
2023/04/04 10:45:24;;;;;;;3.50;1.10;;;;;;;7.75;40.73;102228.23;105770;1254;74491;-72
2023/04/04 10:47:52;;;;;;;2.30;1.00;;;;;;;7.88;40.72;102228.07;105550;1258;71319;-74
2023/04/04 10:50:19;;;;;;;3.20;1.00;;;;;;;7.94;39.27;102220.58;105672;1258;71493;-72
2023/04/04 10:52:46;;;;;;;2.20;0.90;;;;;;;7.99;40.38;102220.39;105696;1254;62124;-72
2023/04/04 10:55:14;;;;;;;2.70;0.90;;;;;;;8.08;40.46;102210.48;105656;1258;61312;-72
2023/04/04 10:57:44;;;;;;;2.80;0.90;;;;;;;8.08;39.87;102211.38;105656;1259;74423;-72
2023/04/04 11:00:17;;;;;;;2.20;1.00;;;;;;;8.10;40.30;102212.26;105656;1254;69680;-74
2023/04/04 11:03:00;;;;;;;3.10;0.90;;;;;;;8.17;40.30;102206.10;105739;1254;72689;-73
2023/04/04 11:06:00;;;;;;;2.70;1.10;;;;;;;8.13;39.47;102202.52;105708;1254;61242;-72
2023/04/04 11:08:25;;;;;;;3.90;1.30;;;;;;;8.12;40.49;102198.34;105572;1260;61174;-72
2023/04/04 11:10:53;;;;;;;2.60;0.90;;;;;;;8.20;40.63;102194.42;105694;1255;73746;-74
2023/04/04 11:13:31;;;;;;;3.70;1.00;;;;;;;8.26;40.34;102191.83;105462;1258;71410;-73
2023/04/04 11:16:00;;;;;;;2.20;0.80;;;;;;;8.31;39.49;102189.34;105706;1258;72602;-72
2023/04/04 11:18:40;;;;;;;3.70;1.20;;;;;;;8.14;38.15;102183.06;105656;1254;61854;-73
2023/04/04 11:21:26;;;;;;;3.40;1.00;;;;;;;8.17;39.58;102184.04;105763;1254;61262;-75
2023/04/04 11:24:03;;;;;;;2.60;0.90;;;;;;;8.32;40.04;102180.58;105550;1260;72580;-71